Terminal Aerodrome Forecast
Issued by NWS Charleston, WV

Current Version | Previous Version | Text Only | Print | Product List | Glossary Off
Versions: 1 2 3 4 5 6 7 8 9 10 11 12 13 14 15 16 17 18 19 20 21 22 23 24 25

000
FTUS41 KRLX 201120
TAFBKW
TAF
KBKW 201120Z 2012/2112 VRB03KT P6SM SCT140
     FM202000 25005KT P6SM BKN100
     FM210200 20007KT P6SM -SHRA OVC050
     FM210500 23009KT 3SM -SHRA OVC025
     FM210700 24007KT 6SM -SHRA BKN010
     FM210900 28007KT P6SM BKN006=

USA.gov is the U.S. government's official web portal to all federal, state and local government web resources and services.